Time;durP1;ratioP1;P1;durP2;ratioP2;P2;SDS_P1;SDS_P2;PMS_P1;PMS_P2;Temp;Humidity;BMP_temperature;BMP_pressure;BME280_temperature;BME280_humidity;BME280_pressure;Samples;Min_cycle;Max_cycle;Signal;HPM_P1;HPM_P2
2023/10/08 00:01:28;;;;;;;7.27;2.47;;;;;;;;;;5045959;28;20188;-89
2023/10/08 00:03:58;;;;;;;4.00;2.63;;;;;;;;;;5052203;28;20172;-89
2023/10/08 00:06:23;;;;;;;6.63;2.50;;;;;;;;;;5046681;28;20185;-89
2023/10/08 00:08:49;;;;;;;3.23;2.27;;;;;;;;;;5061934;28;20202;-89
2023/10/08 00:11:15;;;;;;;6.60;2.30;;;;;;;;;;5051691;28;20177;-88
2023/10/08 00:13:41;;;;;;;4.70;2.50;;;;;;;;;;5049916;28;20251;-88
2023/10/08 00:16:10;;;;;;;5.00;2.63;;;;;;;;;;5052441;28;20186;-88
2023/10/08 00:18:37;;;;;;;5.43;2.67;;;;;;;;;;5046157;28;20186;-89
2023/10/08 00:23:35;;;;;;;4.30;2.80;;;;;;;;;;5052588;28;20168;-89
2023/10/08 00:26:04;;;;;;;4.47;2.53;;;;;;;;;;5052324;28;20193;-89
2023/10/08 00:28:31;;;;;;;4.80;2.43;;;;;;;;;;5049753;28;20180;-89
2023/10/08 00:30:57;;;;;;;7.67;2.80;;;;;;;;;;5052157;28;20184;-89
2023/10/08 00:33:22;;;;;;;4.63;2.27;;;;;;;;;;5049226;28;20221;-90
2023/10/08 00:35:47;;;;;;;6.10;2.73;;;;;;;;;;5052394;28;20179;-90
2023/10/08 00:38:20;;;;;;;4.10;2.07;;;;;;;;;;5044257;28;20239;-89
2023/10/08 00:40:48;;;;;;;4.80;2.60;;;;;;;;;;5046103;28;20174;-89
2023/10/08 00:43:31;;;;;;;3.63;2.40;;;;;;;;;;5039882;28;20179;-89
2023/10/08 00:45:58;;;;;;;3.93;2.50;;;;;;;;;;5047272;28;20249;-88
2023/10/08 00:48:28;;;;;;;7.37;3.20;;;;;;;;;;5047517;28;20246;-90
2023/10/08 00:51:00;;;;;;;8.77;2.67;;;;;;;;;;5045133;28;20211;-90
2023/10/08 00:53:25;;;;;;;3.83;2.57;;;;;;;;;;5046384;28;20191;-89
2023/10/08 00:55:54;;;;;;;6.60;2.60;;;;;;;;;;5051341;28;20173;-88
2023/10/08 00:58:24;;;;;;;4.57;2.67;;;;;;;;;;5049394;28;20208;-90
2023/10/08 01:00:52;;;;;;;4.70;2.40;;;;;;;;;;5043683;28;20196;-89
2023/10/08 01:03:19;;;;;;;5.17;2.70;;;;;;;;;;5048901;28;20186;-88
2023/10/08 01:05:47;;;;;;;6.37;2.70;;;;;;;;;;5045289;28;20179;-89
2023/10/08 01:08:17;;;;;;;6.40;2.77;;;;;;;;;;5037609;28;20189;-90
2023/10/08 01:10:47;;;;;;;5.27;3.07;;;;;;;;;;5047140;28;20182;-89
2023/10/08 01:13:19;;;;;;;6.10;3.00;;;;;;;;;;5044186;28;20205;-90
2023/10/08 01:15:45;;;;;;;4.17;2.50;;;;;;;;;;5052243;28;20189;-89
2023/10/08 01:18:24;;;;;;;7.57;2.60;;;;;;;;;;5049794;28;20174;-88
2023/10/08 01:20:52;;;;;;;7.77;3.10;;;;;;;;;;5049264;28;20222;-88
2023/10/08 01:23:21;;;;;;;5.23;3.30;;;;;;;;;;5050669;28;20179;-89
2023/10/08 01:25:59;;;;;;;7.23;2.37;;;;;;;;;;5053459;28;20210;-88
2023/10/08 01:28:29;;;;;;;4.17;2.33;;;;;;;;;;5050226;28;20254;-88
2023/10/08 01:31:00;;;;;;;6.23;3.00;;;;;;;;;;5047972;28;20181;-89
2023/10/08 01:33:28;;;;;;;8.57;3.30;;;;;;;;;;5041311;28;20199;-89
2023/10/08 01:35:54;;;;;;;8.07;2.33;;;;;;;;;;5047218;28;20175;-90
2023/10/08 01:38:23;;;;;;;5.67;2.50;;;;;;;;;;5043999;28;20179;-89
2023/10/08 01:40:50;;;;;;;7.33;2.63;;;;;;;;;;5046637;28;20201;-87
2023/10/08 01:43:16;;;;;;;7.40;2.77;;;;;;;;;;5039244;28;20273;-89
2023/10/08 01:45:42;;;;;;;5.20;2.50;;;;;;;;;;5049111;28;20536;-88
2023/10/08 01:48:11;;;;;;;4.67;2.60;;;;;;;;;;5049474;28;20201;-89
2023/10/08 01:50:37;;;;;;;4.70;2.60;;;;;;;;;;5049838;28;20267;-89
2023/10/08 01:53:05;;;;;;;3.83;2.43;;;;;;;;;;5050206;28;20209;-88
2023/10/08 01:55:33;;;;;;;4.67;2.40;;;;;;;;;;5043551;28;20231;-88
2023/10/08 01:57:59;;;;;;;5.93;3.33;;;;;;;;;;5040771;28;20209;-89
2023/10/08 02:00:26;;;;;;;3.50;2.30;;;;;;;;;;5047834;28;20183;-89
2023/10/08 02:02:53;;;;;;;3.77;2.40;;;;;;;;;;5048904;28;20181;-89
2023/10/08 02:05:19;;;;;;;8.00;2.87;;;;;;;;;;5045697;28;20234;-89
2023/10/08 02:07:48;;;;;;;6.63;2.40;;;;;;;;;;5047838;28;20177;-88
2023/10/08 02:10:16;;;;;;;6.03;2.47;;;;;;;;;;5059633;28;20240;-89
2023/10/08 02:12:41;;;;;;;4.67;2.50;;;;;;;;;;5039971;28;20196;-88
2023/10/08 02:15:07;;;;;;;3.17;2.17;;;;;;;;;;5049443;28;20232;-90
2023/10/08 02:17:33;;;;;;;5.33;2.33;;;;;;;;;;5047601;28;20177;-87
2023/10/08 02:19:58;;;;;;;3.73;2.40;;;;;;;;;;5050038;28;20189;-87
2023/10/08 02:22:23;;;;;;;3.43;2.23;;;;;;;;;;5049080;28;20190;-89
2023/10/08 02:24:50;;;;;;;6.90;2.90;;;;;;;;;;5050453;28;20233;-89
2023/10/08 02:27:16;;;;;;;2.93;2.17;;;;;;;;;;5043795;28;20229;-90
2023/10/08 02:29:41;;;;;;;5.53;2.50;;;;;;;;;;5051159;28;20205;-90
2023/10/08 02:32:07;;;;;;;5.47;2.90;;;;;;;;;;5049829;28;20213;-88
2023/10/08 02:34:32;;;;;;;5.33;3.03;;;;;;;;;;5045012;28;20181;-88
2023/10/08 02:36:57;;;;;;;4.73;2.80;;;;;;;;;;5047985;28;20196;-89
2023/10/08 02:39:26;;;;;;;7.47;3.17;;;;;;;;;;5047176;28;20269;-88
2023/10/08 02:41:52;;;;;;;6.27;3.03;;;;;;;;;;5045709;28;20186;-89
2023/10/08 02:44:18;;;;;;;4.30;2.33;;;;;;;;;;5043830;28;20186;-88
2023/10/08 02:46:47;;;;;;;4.67;2.60;;;;;;;;;;5047204;28;20200;-89
2023/10/08 02:49:20;;;;;;;5.93;3.00;;;;;;;;;;5042632;28;20181;-90
2023/10/08 02:51:45;;;;;;;11.00;3.33;;;;;;;;;;5048026;28;20201;-90
2023/10/08 02:54:22;;;;;;;7.03;3.93;;;;;;;;;;5038498;28;20190;-90
2023/10/08 02:56:51;;;;;;;6.67;2.80;;;;;;;;;;5050004;28;20181;-89
2023/10/08 02:59:18;;;;;;;5.43;2.90;;;;;;;;;;5047293;28;20296;-90
2023/10/08 03:01:43;;;;;;;6.03;3.27;;;;;;;;;;5051344;28;20195;-89
2023/10/08 03:04:18;;;;;;;7.13;3.27;;;;;;;;;;5050385;28;20184;-90
2023/10/08 03:06:49;;;;;;;3.77;2.50;;;;;;;;;;5041826;28;20180;-90
2023/10/08 03:09:26;;;;;;;5.03;2.93;;;;;;;;;;5047354;28;20257;-90
2023/10/08 03:11:52;;;;;;;6.17;2.83;;;;;;;;;;5045697;28;20196;-90
2023/10/08 03:14:26;;;;;;;5.67;3.33;;;;;;;;;;5046903;28;20188;-89
2023/10/08 03:16:52;;;;;;;5.50;3.00;;;;;;;;;;5047120;28;20174;-90
2023/10/08 03:19:21;;;;;;;3.67;2.30;;;;;;;;;;5046699;28;20180;-89
2023/10/08 03:21:50;;;;;;;4.77;2.70;;;;;;;;;;5048248;28;20182;-90
2023/10/08 03:24:37;;;;;;;4.43;2.70;;;;;;;;;;5046463;28;20274;-93
2023/10/08 03:27:06;;;;;;;3.20;2.60;;;;;;;;;;5042692;28;20174;-92
2023/10/08 03:29:33;;;;;;;6.63;2.23;;;;;;;;;;5046070;28;20181;-88
2023/10/08 03:31:58;;;;;;;4.37;2.40;;;;;;;;;;5043396;28;20219;-90
2023/10/08 03:34:33;;;;;;;3.87;2.90;;;;;;;;;;5046715;28;20189;-89
2023/10/08 03:37:08;;;;;;;6.63;2.40;;;;;;;;;;5045423;28;20180;-89
2023/10/08 03:39:52;;;;;;;5.00;3.10;;;;;;;;;;5043947;28;20177;-91
2023/10/08 03:42:22;;;;;;;4.60;2.60;;;;;;;;;;5055704;28;20189;-89
2023/10/08 03:44:51;;;;;;;5.27;2.43;;;;;;;;;;5044674;28;20213;-88
2023/10/08 03:47:18;;;;;;;5.03;2.43;;;;;;;;;;5052509;28;20233;-90
2023/10/08 03:49:45;;;;;;;2.93;1.80;;;;;;;;;;5045630;28;20264;-90
2023/10/08 03:52:12;;;;;;;3.80;2.27;;;;;;;;;;5050711;28;20201;-89
2023/10/08 03:54:42;;;;;;;3.70;2.17;;;;;;;;;;5030841;28;20183;-89
2023/10/08 03:57:14;;;;;;;3.37;2.13;;;;;;;;;;5061650;28;20186;-89
2023/10/08 03:59:43;;;;;;;7.07;3.03;;;;;;;;;;5044822;28;20198;-89
2023/10/08 04:02:15;;;;;;;4.13;2.10;;;;;;;;;;5029475;28;20190;-88
2023/10/08 04:04:59;;;;;;;2.67;2.10;;;;;;;;;;5043594;28;20177;-87
2023/10/08 04:07:28;;;;;;;3.67;1.90;;;;;;;;;;5051347;28;20191;-89
2023/10/08 04:12:35;;;;;;;3.83;2.20;;;;;;;;;;5047127;28;20200;-89
2023/10/08 04:15:07;;;;;;;5.07;2.53;;;;;;;;;;5050833;28;20172;-90
2023/10/08 04:17:43;;;;;;;4.00;2.30;;;;;;;;;;5048559;28;20190;-89
2023/10/08 04:20:32;;;;;;;3.50;2.40;;;;;;;;;;5051450;28;20224;-88
2023/10/08 04:22:54;;;;;;;5.77;2.73;;;;;;;;;;5046792;28;20187;-90
2023/10/08 04:25:20;;;;;;;7.07;2.87;;;;;;;;;;5048849;28;20246;-88
2023/10/08 04:27:49;;;;;;;4.07;2.37;;;;;;;;;;5055670;28;20233;-88
2023/10/08 04:30:15;;;;;;;4.40;2.87;;;;;;;;;;5052662;28;20295;-88
2023/10/08 04:32:41;;;;;;;3.67;2.40;;;;;;;;;;5050966;28;20212;-90
2023/10/08 04:35:07;;;;;;;3.00;2.03;;;;;;;;;;5050658;28;20217;-94
2023/10/08 04:37:34;;;;;;;5.40;2.50;;;;;;;;;;5050041;28;20191;-91
2023/10/08 04:39:59;;;;;;;4.63;2.60;;;;;;;;;;5047970;28;20184;-90
2023/10/08 04:42:28;;;;;;;6.30;2.87;;;;;;;;;;5044022;28;20191;-89
2023/10/08 04:44:54;;;;;;;4.17;2.77;;;;;;;;;;5052236;28;20246;-91
2023/10/08 04:47:31;;;;;;;6.63;3.30;;;;;;;;;;5049636;28;20222;-90
2023/10/08 04:49:57;;;;;;;5.13;2.87;;;;;;;;;;5037448;28;20189;-87
2023/10/08 04:52:25;;;;;;;4.33;2.40;;;;;;;;;;5053818;28;20263;-91
2023/10/08 04:54:54;;;;;;;4.00;2.67;;;;;;;;;;5046955;28;20181;-90
2023/10/08 04:57:22;;;;;;;5.37;2.60;;;;;;;;;;5053681;28;20218;-91
2023/10/08 04:59:50;;;;;;;4.37;3.30;;;;;;;;;;5046770;28;20274;-90
2023/10/08 05:02:36;;;;;;;4.83;2.30;;;;;;;;;;5051747;28;20211;-90
2023/10/08 05:10:11;;;;;;;3.93;2.97;;;;;;;;;;5047459;28;20184;-90
2023/10/08 05:12:37;;;;;;;3.80;2.60;;;;;;;;;;5065083;28;20243;-90
2023/10/08 05:21:25;;;;;;;6.60;2.60;;;;;;;;;;5051326;28;20184;-89
2023/10/08 05:31:46;;;;;;;5.77;3.17;;;;;;;;;;5046430;28;20195;-89
2023/10/08 05:34:17;;;;;;;3.13;2.33;;;;;;;;;;5051140;28;20193;-89
2023/10/08 05:39:40;;;;;;;12.70;2.70;;;;;;;;;;5050719;28;20198;-89
2023/10/08 05:42:19;;;;;;;4.20;2.57;;;;;;;;;;5045414;28;20187;-91
2023/10/08 05:47:38;;;;;;;5.53;2.93;;;;;;;;;;5052453;28;20191;-91
2023/10/08 05:52:53;;;;;;;6.53;2.47;;;;;;;;;;5050143;28;20199;-91
2023/10/08 05:55:42;;;;;;;4.70;2.70;;;;;;;;;;5047614;28;20182;-89
2023/10/08 05:58:14;;;;;;;5.90;3.00;;;;;;;;;;5052278;28;20208;-89
2023/10/08 06:01:01;;;;;;;5.03;2.83;;;;;;;;;;5052568;28;20184;-90
2023/10/08 06:03:36;;;;;;;4.03;2.77;;;;;;;;;;5042086;28;20181;-90
2023/10/08 06:08:51;;;;;;;6.47;3.00;;;;;;;;;;5047495;28;20185;-89
2023/10/08 06:14:01;;;;;;;5.70;2.90;;;;;;;;;;5044128;28;20221;-89
2023/10/08 06:16:41;;;;;;;4.97;2.80;;;;;;;;;;5052441;28;20176;-91
2023/10/08 06:19:08;;;;;;;5.50;3.13;;;;;;;;;;5047467;28;20177;-90
2023/10/08 06:21:33;;;;;;;4.00;2.63;;;;;;;;;;5046412;28;20179;-89
2023/10/08 06:23:59;;;;;;;7.57;2.80;;;;;;;;;;5046633;28;20261;-91
2023/10/08 06:26:25;;;;;;;5.37;3.10;;;;;;;;;;5044971;28;20192;-89
2023/10/08 06:28:57;;;;;;;5.57;3.10;;;;;;;;;;5048129;28;20172;-91
2023/10/08 06:31:24;;;;;;;5.67;3.00;;;;;;;;;;5043369;28;20266;-90
2023/10/08 06:33:50;;;;;;;5.67;2.97;;;;;;;;;;5047512;28;20204;-90
2023/10/08 06:36:15;;;;;;;5.53;2.90;;;;;;;;;;5053879;28;20177;-90
2023/10/08 06:38:46;;;;;;;7.70;3.17;;;;;;;;;;5047958;28;20173;-90
2023/10/08 06:43:42;;;;;;;7.57;2.60;;;;;;;;;;5049313;28;20185;-89
2023/10/08 06:46:08;;;;;;;7.40;3.47;;;;;;;;;;5051744;28;20314;-90
2023/10/08 06:48:34;;;;;;;3.77;3.13;;;;;;;;;;5054104;28;20271;-90
2023/10/08 06:51:07;;;;;;;8.97;3.40;;;;;;;;;;5045111;28;20193;-89
2023/10/08 06:53:33;;;;;;;7.57;3.30;;;;;;;;;;5044201;28;20203;-91
2023/10/08 06:56:03;;;;;;;6.27;3.37;;;;;;;;;;5046912;28;20178;-91
2023/10/08 06:58:31;;;;;;;4.33;3.07;;;;;;;;;;5050473;28;20211;-90
2023/10/08 07:00:58;;;;;;;9.00;3.90;;;;;;;;;;5042325;28;20170;-89
2023/10/08 07:03:24;;;;;;;4.90;3.20;;;;;;;;;;5043566;28;20201;-90
2023/10/08 07:05:59;;;;;;;7.47;3.93;;;;;;;;;;5050373;28;20172;-90
2023/10/08 07:08:26;;;;;;;6.63;3.40;;;;;;;;;;5038168;28;20196;-90
2023/10/08 07:10:53;;;;;;;6.07;3.40;;;;;;;;;;5046048;28;20195;-90
2023/10/08 07:13:19;;;;;;;6.73;3.07;;;;;;;;;;5049301;28;20212;-90
2023/10/08 07:15:45;;;;;;;5.40;3.90;;;;;;;;;;5042690;28;20513;-90
2023/10/08 07:18:12;;;;;;;5.93;3.33;;;;;;;;;;5045824;28;20200;-90
2023/10/08 07:20:39;;;;;;;10.23;4.17;;;;;;;;;;5047336;28;20183;-90
2023/10/08 07:23:18;;;;;;;7.90;3.50;;;;;;;;;;5029773;28;20179;-90
2023/10/08 07:25:46;;;;;;;5.83;3.77;;;;;;;;;;5046247;28;20567;-90
2023/10/08 07:28:12;;;;;;;5.93;3.37;;;;;;;;;;5048646;28;20275;-90
2023/10/08 07:30:39;;;;;;;7.27;2.83;;;;;;;;;;5042623;28;20268;-90
2023/10/08 07:33:05;;;;;;;8.50;3.43;;;;;;;;;;5044511;28;20280;-91
2023/10/08 07:35:30;;;;;;;9.70;3.40;;;;;;;;;;5047852;28;20290;-89
2023/10/08 07:37:55;;;;;;;8.83;3.63;;;;;;;;;;5045904;28;20181;-91
2023/10/08 07:40:21;;;;;;;6.67;3.17;;;;;;;;;;5044268;28;20186;-89
2023/10/08 07:42:51;;;;;;;8.47;4.00;;;;;;;;;;5043654;28;20200;-91
2023/10/08 07:45:17;;;;;;;6.57;3.67;;;;;;;;;;5049024;28;20260;-91
2023/10/08 07:47:43;;;;;;;5.17;3.13;;;;;;;;;;5047055;28;20182;-89
2023/10/08 07:50:11;;;;;;;4.77;3.10;;;;;;;;;;5039799;28;20182;-89
2023/10/08 07:52:36;;;;;;;9.10;3.97;;;;;;;;;;5047479;28;20312;-89
2023/10/08 07:55:02;;;;;;;9.57;3.93;;;;;;;;;;5048083;28;20265;-90
2023/10/08 07:57:27;;;;;;;7.67;3.13;;;;;;;;;;5044839;28;20187;-89
2023/10/08 08:00:01;;;;;;;5.50;3.40;;;;;;;;;;5048318;28;20194;-90
2023/10/08 08:02:27;;;;;;;7.93;3.40;;;;;;;;;;5038400;28;20185;-92
2023/10/08 08:04:52;;;;;;;8.13;3.33;;;;;;;;;;5047649;28;20186;-89
2023/10/08 08:07:18;;;;;;;8.50;3.60;;;;;;;;;;5048582;28;20180;-90
2023/10/08 08:09:50;;;;;;;8.63;3.63;;;;;;;;;;5048793;28;20176;-89
2023/10/08 08:12:16;;;;;;;9.97;3.57;;;;;;;;;;5047774;28;20209;-90
2023/10/08 08:14:42;;;;;;;9.47;3.00;;;;;;;;;;5047867;28;20184;-89
2023/10/08 08:17:15;;;;;;;10.93;3.63;;;;;;;;;;5049185;28;20224;-90
2023/10/08 08:19:44;;;;;;;8.77;4.10;;;;;;;;;;5048243;28;20180;-92
2023/10/08 08:22:23;;;;;;;6.07;3.33;;;;;;;;;;5042234;28;20194;-90
2023/10/08 08:24:53;;;;;;;8.20;3.33;;;;;;;;;;5046209;28;20181;-90
2023/10/08 08:27:24;;;;;;;5.60;3.33;;;;;;;;;;5045942;28;20264;-89
2023/10/08 08:29:50;;;;;;;8.50;3.80;;;;;;;;;;5049103;28;20232;-90
2023/10/08 08:32:16;;;;;;;3.87;2.83;;;;;;;;;;5044369;28;20328;-92
2023/10/08 08:34:44;;;;;;;8.73;3.70;;;;;;;;;;5052365;28;20196;-91
2023/10/08 08:37:13;;;;;;;5.83;3.30;;;;;;;;;;5042838;28;20262;-91
2023/10/08 08:39:41;;;;;;;10.07;4.00;;;;;;;;;;5046051;28;20179;-90
2023/10/08 08:42:06;;;;;;;5.53;3.60;;;;;;;;;;5051930;28;20187;-90
2023/10/08 08:44:32;;;;;;;7.07;3.40;;;;;;;;;;5047542;28;20176;-92
2023/10/08 08:46:58;;;;;;;8.37;3.77;;;;;;;;;;5047508;28;20181;-90
2023/10/08 08:49:23;;;;;;;7.90;3.27;;;;;;;;;;5054834;28;20187;-90
2023/10/08 08:51:53;;;;;;;7.70;3.70;;;;;;;;;;5044470;28;20315;-91
2023/10/08 08:54:19;;;;;;;7.87;3.80;;;;;;;;;;5043647;28;20190;-90
2023/10/08 08:56:45;;;;;;;8.70;3.37;;;;;;;;;;5043518;28;20188;-89
2023/10/08 08:59:13;;;;;;;7.30;4.17;;;;;;;;;;5045051;28;20221;-90
2023/10/08 09:01:39;;;;;;;7.87;3.23;;;;;;;;;;5041093;28;20273;-91
2023/10/08 09:04:05;;;;;;;7.33;3.50;;;;;;;;;;5048191;28;20182;-92
2023/10/08 09:06:34;;;;;;;9.87;3.53;;;;;;;;;;5044697;28;20186;-90
2023/10/08 09:09:21;;;;;;;8.80;4.17;;;;;;;;;;5052549;28;20227;-89
2023/10/08 09:11:51;;;;;;;7.20;4.67;;;;;;;;;;5049534;28;20193;-92
2023/10/08 09:14:16;;;;;;;6.70;3.73;;;;;;;;;;5052346;28;20174;-90
2023/10/08 09:16:43;;;;;;;11.47;4.53;;;;;;;;;;5047690;28;20258;-90
2023/10/08 09:19:12;;;;;;;10.00;3.53;;;;;;;;;;5048763;28;20272;-91
2023/10/08 09:21:37;;;;;;;9.07;3.63;;;;;;;;;;5046014;28;20193;-90
2023/10/08 09:24:08;;;;;;;6.97;3.53;;;;;;;;;;5051470;28;20250;-91
2023/10/08 09:26:37;;;;;;;6.13;3.10;;;;;;;;;;5045067;28;20216;-90
2023/10/08 09:29:04;;;;;;;7.57;4.13;;;;;;;;;;5052115;28;20325;-91
2023/10/08 09:31:35;;;;;;;6.97;3.73;;;;;;;;;;5051373;28;20243;-91
2023/10/08 09:34:03;;;;;;;7.10;3.23;;;;;;;;;;5049269;28;20313;-93
2023/10/08 09:36:31;;;;;;;8.40;3.33;;;;;;;;;;5052831;28;20223;-91
2023/10/08 09:39:04;;;;;;;10.67;4.00;;;;;;;;;;5041557;28;20174;-93
2023/10/08 09:41:30;;;;;;;11.20;4.67;;;;;;;;;;5039923;28;20179;-91
2023/10/08 09:43:57;;;;;;;7.30;4.07;;;;;;;;;;5050814;28;20187;-90
2023/10/08 09:46:26;;;;;;;10.03;3.73;;;;;;;;;;5048646;28;20306;-92
2023/10/08 09:48:54;;;;;;;8.40;3.70;;;;;;;;;;5050740;28;20247;-90
2023/10/08 09:51:20;;;;;;;9.90;4.00;;;;;;;;;;5049607;28;20210;-92
2023/10/08 09:53:55;;;;;;;8.70;3.73;;;;;;;;;;5050030;28;20194;-91
2023/10/08 09:56:20;;;;;;;9.37;3.67;;;;;;;;;;5048945;28;20181;-92
2023/10/08 09:58:48;;;;;;;14.63;4.47;;;;;;;;;;5050889;28;20212;-93
2023/10/08 10:01:15;;;;;;;7.00;3.63;;;;;;;;;;5048160;28;20178;-90
2023/10/08 10:03:42;;;;;;;11.73;4.57;;;;;;;;;;5046667;28;20219;-91
2023/10/08 10:06:11;;;;;;;8.67;3.80;;;;;;;;;;5047712;28;20244;-91
2023/10/08 10:08:37;;;;;;;12.90;4.30;;;;;;;;;;5047836;28;20875;-90
2023/10/08 10:11:03;;;;;;;7.23;3.77;;;;;;;;;;5042584;28;20184;-91
2023/10/08 10:13:29;;;;;;;10.43;4.10;;;;;;;;;;5063839;28;20207;-91
2023/10/08 10:15:56;;;;;;;9.77;4.57;;;;;;;;;;5048291;28;20176;-90
2023/10/08 10:18:21;;;;;;;13.20;3.87;;;;;;;;;;5052883;28;20216;-91
2023/10/08 10:20:50;;;;;;;12.63;4.40;;;;;;;;;;5048760;28;20216;-89
2023/10/08 10:23:35;;;;;;;9.87;3.60;;;;;;;;;;5052656;28;20178;-89
2023/10/08 10:26:02;;;;;;;12.93;4.33;;;;;;;;;;5047141;28;20190;-91
2023/10/08 10:28:29;;;;;;;10.23;3.73;;;;;;;;;;5048116;28;20256;-90
2023/10/08 10:30:55;;;;;;;18.60;4.23;;;;;;;;;;5054725;28;20409;-90
2023/10/08 10:33:21;;;;;;;15.50;4.07;;;;;;;;;;5043227;28;20202;-90
2023/10/08 10:35:52;;;;;;;13.27;4.40;;;;;;;;;;5052411;28;20200;-90
2023/10/08 10:38:20;;;;;;;12.03;4.60;;;;;;;;;;5043068;28;20197;-90
2023/10/08 10:40:56;;;;;;;9.97;3.87;;;;;;;;;;5052821;28;20267;-91
2023/10/08 10:43:31;;;;;;;11.83;3.67;;;;;;;;;;5052884;28;20201;-91
2023/10/08 10:45:57;;;;;;;9.83;4.07;;;;;;;;;;5046197;28;20222;-91
2023/10/08 10:48:23;;;;;;;8.73;3.23;;;;;;;;;;5047959;28;20185;-91
2023/10/08 10:51:11;;;;;;;12.47;3.83;;;;;;;;;;5062527;28;20228;-90
2023/10/08 10:56:29;;;;;;;8.60;3.97;;;;;;;;;;5043444;28;20284;-91
2023/10/08 10:58:58;;;;;;;8.43;4.20;;;;;;;;;;5066041;28;20221;-91
2023/10/08 11:01:29;;;;;;;11.77;4.80;;;;;;;;;;5045396;28;20404;-90
2023/10/08 11:03:57;;;;;;;11.73;3.67;;;;;;;;;;5047120;28;20189;-89
2023/10/08 11:06:23;;;;;;;11.20;4.77;;;;;;;;;;5045731;28;20190;-92
2023/10/08 11:08:52;;;;;;;13.60;4.43;;;;;;;;;;5041107;28;20186;-93
2023/10/08 11:11:27;;;;;;;13.07;4.25;;;;;;;;;;5045534;28;20186;-91
2023/10/08 11:13:55;;;;;;;9.45;3.50;;;;;;;;;;5041121;28;20261;-89
2023/10/08 11:16:23;;;;;;;13.70;4.27;;;;;;;;;;5049046;28;20188;-90
2023/10/08 11:18:50;;;;;;;13.43;4.00;;;;;;;;;;5061284;28;20185;-89
2023/10/08 11:21:15;;;;;;;11.07;3.80;;;;;;;;;;5043100;28;20174;-90
2023/10/08 11:23:52;;;;;;;11.35;4.15;;;;;;;;;;5040061;28;20213;-90
2023/10/08 11:26:19;;;;;;;13.25;4.65;;;;;;;;;;5044893;28;20199;-90
2023/10/08 11:28:47;;;;;;;12.02;4.47;;;;;;;;;;5038201;28;20214;-90
2023/10/08 11:31:14;;;;;;;11.30;3.83;;;;;;;;;;5044029;28;20187;-90
2023/10/08 11:33:40;;;;;;;11.43;4.20;;;;;;;;;;5043517;28;20213;-89
2023/10/08 11:36:06;;;;;;;11.98;4.72;;;;;;;;;;5049131;28;20185;-90
2023/10/08 11:38:41;;;;;;;13.20;5.13;;;;;;;;;;5046497;28;20186;-90
2023/10/08 11:41:20;;;;;;;12.97;4.57;;;;;;;;;;5046694;28;20178;-90
2023/10/08 11:43:46;;;;;;;9.00;3.80;;;;;;;;;;5043990;28;20188;-90
2023/10/08 11:46:14;;;;;;;8.48;3.95;;;;;;;;;;5043810;28;20232;-91
2023/10/08 11:48:43;;;;;;;11.25;3.50;;;;;;;;;;5046928;28;20191;-91
2023/10/08 11:51:11;;;;;;;10.50;3.63;;;;;;;;;;5045785;28;20197;-91
2023/10/08 11:53:37;;;;;;;11.50;3.42;;;;;;;;;;5047108;28;20202;-91
2023/10/08 11:56:02;;;;;;;10.80;4.07;;;;;;;;;;5043941;28;20247;-91
2023/10/08 11:58:37;;;;;;;11.60;5.03;;;;;;;;;;5045373;28;20205;-90
2023/10/08 12:01:03;;;;;;;9.73;3.60;;;;;;;;;;5039356;28;20190;-90
2023/10/08 12:03:29;;;;;;;9.00;3.78;;;;;;;;;;5053161;28;20185;-91
2023/10/08 12:05:59;;;;;;;19.42;4.70;;;;;;;;;;5045729;28;20174;-91
2023/10/08 12:08:27;;;;;;;11.70;4.55;;;;;;;;;;5061920;28;20186;-90
2023/10/08 12:10:54;;;;;;;13.77;4.20;;;;;;;;;;5045481;28;20220;-90
2023/10/08 12:13:24;;;;;;;11.48;3.90;;;;;;;;;;5047740;28;20209;-90
2023/10/08 12:15:50;;;;;;;17.52;4.72;;;;;;;;;;5052231;28;20186;-89
2023/10/08 12:18:18;;;;;;;9.93;4.88;;;;;;;;;;5051061;28;20209;-90
2023/10/08 12:20:44;;;;;;;12.70;4.97;;;;;;;;;;5045233;28;20174;-91
2023/10/08 12:23:10;;;;;;;13.77;3.95;;;;;;;;;;5045097;28;20216;-92
2023/10/08 12:25:37;;;;;;;11.38;4.38;;;;;;;;;;5048272;28;20183;-91
2023/10/08 12:28:03;;;;;;;19.25;4.53;;;;;;;;;;5047116;28;20304;-90
2023/10/08 12:30:30;;;;;;;19.08;4.72;;;;;;;;;;5044692;28;20193;-90
2023/10/08 12:32:57;;;;;;;12.77;4.50;;;;;;;;;;5046631;28;20201;-91
2023/10/08 12:35:24;;;;;;;12.52;4.40;;;;;;;;;;5048759;28;20224;-90
2023/10/08 12:37:49;;;;;;;9.82;4.20;;;;;;;;;;5051384;28;20170;-91
2023/10/08 12:40:23;;;;;;;9.73;4.45;;;;;;;;;;5046039;28;20194;-90
2023/10/08 12:42:52;;;;;;;15.93;5.30;;;;;;;;;;5051318;28;20207;-92
2023/10/08 12:45:20;;;;;;;13.48;4.32;;;;;;;;;;5052755;28;20230;-91
2023/10/08 12:47:52;;;;;;;16.92;4.85;;;;;;;;;;5051624;28;20178;-91
2023/10/08 12:50:23;;;;;;;11.75;4.18;;;;;;;;;;5050841;28;20174;-90
2023/10/08 12:52:52;;;;;;;10.63;5.10;;;;;;;;;;5049591;28;20213;-90
2023/10/08 12:55:19;;;;;;;11.65;4.13;;;;;;;;;;5049171;28;20170;-91
2023/10/08 12:57:49;;;;;;;12.93;3.92;;;;;;;;;;5044179;28;20187;-91
2023/10/08 13:00:14;;;;;;;7.88;3.72;;;;;;;;;;5048244;28;20186;-90
2023/10/08 13:02:42;;;;;;;9.82;4.70;;;;;;;;;;5050551;28;20265;-91
2023/10/08 13:05:15;;;;;;;10.70;4.50;;;;;;;;;;5049724;28;20248;-89
2023/10/08 13:07:42;;;;;;;10.38;4.03;;;;;;;;;;5047958;28;20204;-90
2023/10/08 13:10:11;;;;;;;10.40;4.60;;;;;;;;;;5052357;28;20198;-91
2023/10/08 13:12:37;;;;;;;14.05;4.55;;;;;;;;;;5043717;28;20205;-90
2023/10/08 13:15:06;;;;;;;14.25;5.28;;;;;;;;;;5048347;28;20206;-91
2023/10/08 13:17:31;;;;;;;8.55;3.78;;;;;;;;;;5052128;28;20209;-91
2023/10/08 13:19:56;;;;;;;12.52;5.28;;;;;;;;;;5049898;28;20255;-91
2023/10/08 13:22:24;;;;;;;18.20;6.57;;;;;;;;;;5049685;28;20182;-91
2023/10/08 13:24:49;;;;;;;14.23;4.63;;;;;;;;;;5054702;28;20214;-91
2023/10/08 13:27:16;;;;;;;14.90;4.88;;;;;;;;;;5043232;28;20259;-90
2023/10/08 13:29:43;;;;;;;9.60;4.85;;;;;;;;;;5050752;28;20193;-95
2023/10/08 13:32:17;;;;;;;15.50;4.95;;;;;;;;;;5051657;28;20304;-91
2023/10/08 13:34:42;;;;;;;11.63;5.22;;;;;;;;;;5052922;28;20181;-90
2023/10/08 13:37:07;;;;;;;16.88;4.63;;;;;;;;;;5042255;28;20181;-91
2023/10/08 13:39:35;;;;;;;14.88;4.78;;;;;;;;;;5045538;28;20183;-91
2023/10/08 13:42:01;;;;;;;11.85;5.13;;;;;;;;;;5046677;28;20193;-90
2023/10/08 13:44:28;;;;;;;16.13;5.32;;;;;;;;;;5049475;28;20261;-91
2023/10/08 13:46:57;;;;;;;13.30;5.18;;;;;;;;;;5044685;28;20185;-92
2023/10/08 13:49:22;;;;;;;11.20;3.53;;;;;;;;;;5051010;28;20216;-91
2023/10/08 13:51:55;;;;;;;14.85;4.95;;;;;;;;;;5051020;28;20178;-91
2023/10/08 13:54:21;;;;;;;16.52;4.63;;;;;;;;;;5049676;28;20312;-90
2023/10/08 13:56:48;;;;;;;11.82;5.40;;;;;;;;;;5062659;28;20194;-92
2023/10/08 13:59:13;;;;;;;16.13;4.72;;;;;;;;;;5048967;28;20191;-92
2023/10/08 14:01:51;;;;;;;14.85;5.82;;;;;;;;;;5047572;28;20265;-90
2023/10/08 14:04:19;;;;;;;14.38;4.72;;;;;;;;;;5040817;28;20205;-90
2023/10/08 14:06:51;;;;;;;15.35;5.55;;;;;;;;;;5045232;28;20179;-91
2023/10/08 14:09:21;;;;;;;13.75;4.78;;;;;;;;;;5041894;28;20206;-91
2023/10/08 14:11:47;;;;;;;14.98;4.85;;;;;;;;;;5046911;28;20178;-90
2023/10/08 14:14:19;;;;;;;17.05;4.93;;;;;;;;;;5051154;28;20199;-93
2023/10/08 14:16:46;;;;;;;13.10;4.38;;;;;;;;;;5040687;28;20174;-91
2023/10/08 14:19:13;;;;;;;10.68;4.07;;;;;;;;;;5050169;28;20206;-91
2023/10/08 14:21:49;;;;;;;8.95;4.18;;;;;;;;;;5051668;28;20173;-91
2023/10/08 14:24:15;;;;;;;16.67;5.63;;;;;;;;;;5037277;28;20178;-90
2023/10/08 14:26:41;;;;;;;13.50;4.40;;;;;;;;;;5047826;28;20178;-92
2023/10/08 14:29:15;;;;;;;14.25;5.03;;;;;;;;;;5064578;28;20182;-90
2023/10/08 14:31:42;;;;;;;12.15;4.35;;;;;;;;;;5046359;28;20193;-91
2023/10/08 14:45:11;;;;;;;16.02;5.03;;;;;;;;;;5043476;28;20277;-90
2023/10/08 14:47:36;;;;;;;15.18;5.65;;;;;;;;;;5049377;28;20208;-89
2023/10/08 14:50:04;;;;;;;15.15;5.32;;;;;;;;;;5041762;28;20263;-92
2023/10/08 14:52:31;;;;;;;12.75;5.13;;;;;;;;;;5045808;28;20204;-91
2023/10/08 14:54:56;;;;;;;13.05;4.82;;;;;;;;;;5046095;28;20182;-91
2023/10/08 14:57:22;;;;;;;14.73;5.57;;;;;;;;;;5044042;28;20185;-92
2023/10/08 14:59:48;;;;;;;13.63;5.72;;;;;;;;;;5037992;28;20244;-90
2023/10/08 15:02:13;;;;;;;14.52;5.47;;;;;;;;;;5048354;28;20239;-90
2023/10/08 15:04:41;;;;;;;7.50;4.10;;;;;;;;;;5039779;28;20171;-91
2023/10/08 15:07:11;;;;;;;15.70;5.63;;;;;;;;;;5042677;28;20183;-91
2023/10/08 15:09:39;;;;;;;15.07;4.90;;;;;;;;;;5036510;28;20186;-90
2023/10/08 15:12:06;;;;;;;15.95;5.40;;;;;;;;;;5047480;28;20178;-91
2023/10/08 15:14:31;;;;;;;18.58;4.63;;;;;;;;;;5041667;28;20170;-90
2023/10/08 15:16:57;;;;;;;18.80;6.18;;;;;;;;;;5046650;28;20173;-91
2023/10/08 15:19:22;;;;;;;15.15;5.13;;;;;;;;;;5043317;28;20178;-91
2023/10/08 15:21:51;;;;;;;11.35;4.85;;;;;;;;;;5040361;28;20170;-92
2023/10/08 15:24:21;;;;;;;13.13;4.60;;;;;;;;;;5043794;28;20178;-91
2023/10/08 15:26:52;;;;;;;13.00;5.30;;;;;;;;;;5044474;28;20178;-92
2023/10/08 15:29:17;;;;;;;15.32;4.68;;;;;;;;;;5044133;28;20185;-91
2023/10/08 15:31:45;;;;;;;17.55;5.88;;;;;;;;;;5048325;28;20182;-90
2023/10/08 15:34:12;;;;;;;16.70;5.70;;;;;;;;;;5041380;28;20213;-92
2023/10/08 15:36:38;;;;;;;20.75;6.65;;;;;;;;;;5048807;28;20177;-91
2023/10/08 15:39:04;;;;;;;11.65;3.95;;;;;;;;;;5043179;28;20186;-91
2023/10/08 15:41:30;;;;;;;15.13;5.10;;;;;;;;;;5047729;28;20170;-90